Time;durP1;ratioP1;P1;durP2;ratioP2;P2;SDS_P1;SDS_P2;PMS_P1;PMS_P2;Temp;Humidity;BMP_temperature;BMP_pressure;BME280_temperature;BME280_humidity;BME280_pressure;Samples;Min_cycle;Max_cycle;Signal;HPM_P1;HPM_P2
2022/10/20 00:03:30;;;;;;;16.23;7.70;;;;;;;;;;8333720;28;20045;-84
2022/10/20 00:07:35;;;;;;;22.23;7.45;;;;;;;;;;8333610;28;20535;-83
2022/10/20 00:11:37;;;;;;;21.70;6.95;;;;;;;;;;8333583;28;20481;-84
2022/10/20 00:15:40;;;;;;;21.05;7.55;;;;;;;;;;8332509;28;20413;-83
2022/10/20 00:19:47;;;;;;;19.42;7.95;;;;;;;;;;8333327;28;20057;-84
2022/10/20 00:23:49;;;;;;;14.32;6.63;;;;;;;;;;8333307;28;20041;-84
2022/10/20 00:27:52;;;;;;;20.80;7.78;;;;;;;;;;8332950;28;20053;-84
2022/10/20 00:31:54;;;;;;;23.08;8.20;;;;;;;;;;8333344;28;20087;-84
2022/10/20 00:36:00;;;;;;;24.70;9.07;;;;;;;;;;8346874;28;20048;-85
2022/10/20 00:40:03;;;;;;;32.38;9.60;;;;;;;;;;8332838;28;20435;-84
2022/10/20 00:44:38;;;;;;;25.33;9.15;;;;;;;;;;8332526;28;20120;-86
2022/10/20 00:48:45;;;;;;;22.08;7.82;;;;;;;;;;8332366;28;20382;-84
2022/10/20 00:52:49;;;;;;;22.98;9.05;;;;;;;;;;8332345;28;20120;-84
2022/10/20 00:56:55;;;;;;;19.17;8.60;;;;;;;;;;8332140;28;20041;-84
2022/10/20 01:01:01;;;;;;;24.45;8.63;;;;;;;;;;8332114;28;20076;-84
2022/10/20 01:05:08;;;;;;;25.17;8.80;;;;;;;;;;8315072;28;20100;-84
2022/10/20 01:09:15;;;;;;;19.95;7.20;;;;;;;;;;8331987;28;20049;-85
2022/10/20 01:13:29;;;;;;;23.55;9.23;;;;;;;;;;8331348;28;20057;-86
2022/10/20 01:17:40;;;;;;;25.77;9.77;;;;;;;;;;8331600;28;20069;-83
2022/10/20 01:22:05;;;;;;;22.90;9.57;;;;;;;;;;8331535;28;20050;-84
2022/10/20 01:26:37;;;;;;;21.63;8.18;;;;;;;;;;8331058;28;20548;-84
2022/10/20 01:30:46;;;;;;;19.13;7.13;;;;;;;;;;8327678;28;20523;-84
2022/10/20 01:34:58;;;;;;;22.45;7.63;;;;;;;;;;8345212;28;20129;-84
2022/10/20 01:39:05;;;;;;;16.83;7.05;;;;;;;;;;8331125;28;20053;-84
2022/10/20 01:43:11;;;;;;;23.88;8.82;;;;;;;;;;8330622;28;20033;-85
2022/10/20 01:47:17;;;;;;;21.17;8.07;;;;;;;;;;8330763;28;20052;-84
2022/10/20 01:51:20;;;;;;;24.08;7.95;;;;;;;;;;8330495;28;20552;-85
2022/10/20 01:55:22;;;;;;;18.65;7.05;;;;;;;;;;8312724;28;20045;-85
2022/10/20 01:59:36;;;;;;;26.13;8.00;;;;;;;;;;8330247;28;20049;-84
2022/10/20 02:03:51;;;;;;;26.65;7.82;;;;;;;;;;8330151;28;20049;-84
2022/10/20 02:08:00;;;;;;;24.48;7.38;;;;;;;;;;8330000;28;20404;-84
2022/10/20 02:12:07;;;;;;;22.77;8.15;;;;;;;;;;8329925;28;20445;-84
2022/10/20 02:16:14;;;;;;;16.67;6.97;;;;;;;;;;8321770;28;20046;-85
2022/10/20 02:20:18;;;;;;;20.58;7.90;;;;;;;;;;8329611;28;20452;-84
2022/10/20 02:24:23;;;;;;;19.77;7.38;;;;;;;;;;8329779;28;20116;-84
2022/10/20 02:28:28;;;;;;;20.67;7.65;;;;;;;;;;8329637;28;20049;-85
2022/10/20 02:32:32;;;;;;;19.20;8.25;;;;;;;;;;8316531;28;20120;-85
2022/10/20 02:36:38;;;;;;;18.75;8.52;;;;;;;;;;8341878;28;20072;-85
2022/10/20 02:40:41;;;;;;;34.05;11.77;;;;;;;;;;8328936;28;20057;-84
2022/10/20 02:44:43;;;;;;;63.28;22.08;;;;;;;;;;8329440;28;20042;-85
2022/10/20 02:48:45;;;;;;;57.17;20.85;;;;;;;;;;8329205;28;20046;-84
2022/10/20 02:52:49;;;;;;;50.03;18.42;;;;;;;;;;8329013;28;20390;-85
2022/10/20 02:56:52;;;;;;;24.92;10.13;;;;;;;;;;8329052;28;20064;-85
2022/10/20 03:00:54;;;;;;;30.60;11.15;;;;;;;;;;8329115;28;20092;-84
2022/10/20 03:04:56;;;;;;;33.20;14.93;;;;;;;;;;8329052;28;20168;-85
2022/10/20 03:09:01;;;;;;;35.20;9.90;;;;;;;;;;8329054;28;20100;-84
2022/10/20 03:13:03;;;;;;;49.10;10.00;;;;;;;;;;8328390;28;20488;-84
2022/10/20 03:17:06;;;;;;;45.42;10.20;;;;;;;;;;8328629;28;20075;-85
2022/10/20 03:21:08;;;;;;;64.40;10.38;;;;;;;;;;8328717;28;20198;-86
2022/10/20 03:25:12;;;;;;;63.78;11.93;;;;;;;;;;8314730;28;20049;-85
2022/10/20 03:29:14;;;;;;;72.28;13.60;;;;;;;;;;8328845;28;20041;-85
2022/10/20 03:33:17;;;;;;;90.32;14.00;;;;;;;;;;8335746;28;20048;-85
2022/10/20 03:37:19;;;;;;;75.22;11.85;;;;;;;;;;8334766;28;20055;-85
2022/10/20 03:41:23;;;;;;;130.50;22.58;;;;;;;;;;8311019;28;20046;-85
2022/10/20 03:45:25;;;;;;;135.05;27.55;;;;;;;;;;8328299;28;20117;-84
2022/10/20 03:49:28;;;;;;;88.93;22.40;;;;;;;;;;8330304;28;20049;-85
2022/10/20 03:53:30;;;;;;;69.18;15.85;;;;;;;;;;8334014;28;20052;-85
2022/10/20 03:57:34;;;;;;;89.28;16.50;;;;;;;;;;8334088;28;20397;-85
2022/10/20 04:01:37;;;;;;;81.90;17.80;;;;;;;;;;8334316;28;20612;-84
2022/10/20 04:05:39;;;;;;;111.05;20.50;;;;;;;;;;8333758;28;20045;-84
2022/10/20 04:09:42;;;;;;;102.47;21.88;;;;;;;;;;8333560;28;20153;-84
2022/10/20 04:13:46;;;;;;;150.88;40.97;;;;;;;;;;8333134;28;20057;-84
2022/10/20 04:17:48;;;;;;;170.13;46.45;;;;;;;;;;8333458;28;20131;-84
2022/10/20 04:21:50;;;;;;;118.43;32.58;;;;;;;;;;8333149;28;20046;-84
2022/10/20 04:25:53;;;;;;;145.02;37.55;;;;;;;;;;8333182;28;20497;-84
2022/10/20 04:29:56;;;;;;;93.97;22.02;;;;;;;;;;8332905;28;20530;-85
2022/10/20 04:33:59;;;;;;;85.82;16.98;;;;;;;;;;8345900;28;20048;-84
2022/10/20 04:38:01;;;;;;;90.95;21.77;;;;;;;;;;8333165;28;20042;-84
2022/10/20 04:42:03;;;;;;;97.93;25.02;;;;;;;;;;8332643;28;20492;-84
2022/10/20 04:46:08;;;;;;;93.00;20.95;;;;;;;;;;8332222;28;20053;-85
2022/10/20 04:50:10;;;;;;;91.63;17.63;;;;;;;;;;8315002;28;20041;-84
2022/10/20 04:54:12;;;;;;;58.25;15.65;;;;;;;;;;8332802;28;20528;-84
2022/10/20 04:58:15;;;;;;;84.78;18.75;;;;;;;;;;8332382;28;20049;-84
2022/10/20 05:02:19;;;;;;;82.93;18.17;;;;;;;;;;8331817;28;20544;-84
2022/10/20 05:06:23;;;;;;;64.70;15.77;;;;;;;;;;8331847;28;20413;-84
2022/10/20 05:10:26;;;;;;;113.47;20.00;;;;;;;;;;8331704;28;20041;-84
2022/10/20 05:14:28;;;;;;;72.78;16.58;;;;;;;;;;8331654;28;20104;-84
2022/10/20 05:18:32;;;;;;;68.22;16.25;;;;;;;;;;8331530;28;20504;-84
2022/10/20 05:22:36;;;;;;;132.00;24.48;;;;;;;;;;8313503;28;20091;-84
2022/10/20 05:26:38;;;;;;;112.43;25.17;;;;;;;;;;8331239;28;20077;-84
2022/10/20 05:30:41;;;;;;;203.57;55.15;;;;;;;;;;8331249;28;20401;-84
2022/10/20 05:34:45;;;;;;;142.57;43.80;;;;;;;;;;8344699;28;20049;-84
2022/10/20 05:38:48;;;;;;;119.75;34.97;;;;;;;;;;8341650;28;20079;-84
2022/10/20 05:42:50;;;;;;;139.23;34.35;;;;;;;;;;8333537;28;20056;-84
2022/10/20 05:46:52;;;;;;;117.13;35.13;;;;;;;;;;8330427;28;20053;-84
2022/10/20 05:51:06;;;;;;;81.05;31.85;;;;;;;;;;8330459;28;20045;-85
2022/10/20 05:55:10;;;;;;;62.28;16.63;;;;;;;;;;8316757;28;20041;-84
2022/10/20 05:59:13;;;;;;;33.28;10.98;;;;;;;;;;8330393;28;20049;-84
2022/10/20 06:03:15;;;;;;;44.92;18.52;;;;;;;;;;8329976;28;20061;-84
2022/10/20 06:07:19;;;;;;;48.03;14.02;;;;;;;;;;8347636;28;20055;-84
2022/10/20 06:11:23;;;;;;;95.88;58.22;;;;;;;;;;8340179;28;20382;-84
2022/10/20 06:15:25;;;;;;;111.80;39.67;;;;;;;;;;8328956;28;20451;-83
2022/10/20 06:19:27;;;;;;;;;;;;;;;;;;8330209;28;20041;-84
2022/10/20 06:23:31;;;;;;;13.93;8.75;;;;;;;;;;8330174;28;19925;-83
2022/10/20 06:27:34;;;;;;;73.18;36.72;;;;;;;;;;8329479;28;20126;-83
2022/10/20 06:31:38;;;;;;;69.65;13.13;;;;;;;;;;8329489;28;20059;-84
2022/10/20 06:35:40;;;;;;;38.00;9.25;;;;;;;;;;8343459;28;20054;-83
2022/10/20 06:39:45;;;;;;;67.97;14.55;;;;;;;;;;8329131;28;20038;-83
2022/10/20 06:43:47;;;;;;;41.85;12.00;;;;;;;;;;8329475;28;20041;-83
2022/10/20 06:47:50;;;;;;;46.22;8.00;;;;;;;;;;8329517;28;20077;-84
2022/10/20 06:51:52;;;;;;;29.75;7.07;;;;;;;;;;8329251;28;20137;-84
2022/10/20 06:56:00;;;;;;;55.60;9.43;;;;;;;;;;8329069;28;20432;-83
2022/10/20 07:00:05;;;;;;;26.02;14.65;;;;;;;;;;8348673;28;20054;-83
2022/10/20 07:04:13;;;;;;;64.88;27.92;;;;;;;;;;8328946;28;20072;-83
2022/10/20 07:08:15;;;;;;;117.30;30.30;;;;;;;;;;8329056;28;20041;-83
2022/10/20 07:12:19;;;;;;;74.35;19.75;;;;;;;;;;8328690;28;20053;-83
2022/10/20 07:16:24;;;;;;;31.48;6.53;;;;;;;;;;8329063;28;20048;-84
2022/10/20 07:20:26;;;;;;;51.63;7.00;;;;;;;;;;8328849;28;20049;-83
2022/10/20 07:24:29;;;;;;;63.05;9.35;;;;;;;;;;8330948;28;20136;-83
2022/10/20 07:28:33;;;;;;;66.40;7.57;;;;;;;;;;8334845;28;20428;-83
2022/10/20 07:32:36;;;;;;;57.83;6.75;;;;;;;;;;8336459;28;20132;-83
2022/10/20 07:36:41;;;;;;;74.78;9.88;;;;;;;;;;8346639;28;20049;-84
2022/10/20 07:40:43;;;;;;;74.78;14.73;;;;;;;;;;8335609;28;20128;-83
2022/10/20 07:44:47;;;;;;;62.70;15.45;;;;;;;;;;8334377;28;20096;-83
2022/10/20 07:48:50;;;;;;;43.72;8.95;;;;;;;;;;8334331;28;20432;-83
2022/10/20 07:52:53;;;;;;;56.72;7.22;;;;;;;;;;8334704;28;20547;-83
2022/10/20 07:56:55;;;;;;;31.55;6.10;;;;;;;;;;8333979;28;20093;-84
2022/10/20 08:00:59;;;;;;;91.78;23.42;;;;;;;;;;8334008;28;20482;-83
2022/10/20 08:05:01;;;;;;;146.75;59.90;;;;;;;;;;8333868;28;20045;-83
2022/10/20 08:09:04;;;;;;;105.57;46.67;;;;;;;;;;8333791;28;20132;-84
2022/10/20 08:13:07;;;;;;;113.00;46.40;;;;;;;;;;8333509;28;20053;-84
2022/10/20 08:17:11;;;;;;;74.95;29.58;;;;;;;;;;8325359;28;20046;-84
2022/10/20 08:21:15;;;;;;;59.53;30.95;;;;;;;;;;8333420;28;20049;-84
2022/10/20 08:25:17;;;;;;;50.08;29.17;;;;;;;;;;8333167;28;20149;-83
2022/10/20 08:29:20;;;;;;;127.97;50.00;;;;;;;;;;8332962;28;20057;-83
2022/10/20 08:33:24;;;;;;;98.78;50.35;;;;;;;;;;8340974;28;20049;-84
2022/10/20 08:37:26;;;;;;;92.13;50.50;;;;;;;;;;8337498;28;20136;-83
2022/10/20 08:41:33;;;;;;;48.72;24.27;;;;;;;;;;8333154;28;20499;-84
2022/10/20 08:45:37;;;;;;;32.83;13.43;;;;;;;;;;8332629;28;20110;-84
2022/10/20 08:49:41;;;;;;;13.88;8.45;;;;;;;;;;8332444;28;20417;-84
2022/10/20 08:53:43;;;;;;;31.33;23.83;;;;;;;;;;8332352;28;20056;-84
2022/10/20 08:57:48;;;;;;;32.97;20.33;;;;;;;;;;8332158;28;20056;-84
2022/10/20 09:01:51;;;;;;;58.15;28.65;;;;;;;;;;8332414;28;20091;-84
2022/10/20 09:06:00;;;;;;;58.63;35.85;;;;;;;;;;8331823;28;20088;-84
2022/10/20 09:10:07;;;;;;;39.67;22.92;;;;;;;;;;8331858;28;20056;-84
2022/10/20 09:14:13;;;;;;;43.03;29.40;;;;;;;;;;8331472;28;20057;-84
2022/10/20 09:18:16;;;;;;;44.42;31.65;;;;;;;;;;8331607;28;20053;-85
2022/10/20 09:22:21;;;;;;;32.30;19.85;;;;;;;;;;8331420;28;20081;-84
2022/10/20 09:26:32;;;;;;;25.73;16.67;;;;;;;;;;8331227;28;20120;-84
2022/10/20 09:30:35;;;;;;;22.70;12.60;;;;;;;;;;8331040;28;20047;-84
2022/10/20 09:34:37;;;;;;;13.63;9.15;;;;;;;;;;8333018;28;20304;-86
2022/10/20 09:38:45;;;;;;;13.25;9.45;;;;;;;;;;8319815;28;20042;-87
2022/10/20 09:42:53;;;;;;;12.98;8.10;;;;;;;;;;8299572;28;20537;-87
2022/10/20 09:46:57;;;;;;;9.55;5.68;;;;;;;;;;8312452;28;20056;-87
2022/10/20 09:51:01;;;;;;;6.30;4.75;;;;;;;;;;8323267;28;20057;-87
2022/10/20 09:55:19;;;;;;;11.68;5.82;;;;;;;;;;8316621;28;20135;-87
2022/10/20 09:59:25;;;;;;;2.00;1.38;;;;;;;;;;8324357;28;20103;-87
2022/10/20 10:03:30;;;;;;;8.60;4.57;;;;;;;;;;8320848;28;20121;-87
2022/10/20 10:07:32;;;;;;;5.85;3.03;;;;;;;;;;8330643;28;20560;-87
2022/10/20 10:11:37;;;;;;;6.22;2.30;;;;;;;;;;8343169;28;20065;-88
2022/10/20 10:15:40;;;;;;;1.40;1.27;;;;;;;;;;8329397;28;20045;-87
2022/10/20 10:19:48;;;;;;;1.55;1.00;;;;;;;;;;8342544;28;20503;-87
2022/10/20 10:23:53;;;;;;;2.22;1.23;;;;;;;;;;8322996;28;20643;-88
2022/10/20 10:28:02;;;;;;;1.95;1.40;;;;;;;;;;8329192;28;20049;-87
2022/10/20 10:32:14;;;;;;;2.63;1.95;;;;;;;;;;8296655;28;20378;-87
2022/10/20 10:36:30;;;;;;;8.95;2.97;;;;;;;;;;8315018;28;20044;-87
2022/10/20 10:40:39;;;;;;;4.88;2.30;;;;;;;;;;8322725;28;20552;-88
2022/10/20 10:44:55;;;;;;;5.05;1.98;;;;;;;;;;8325860;28;20054;-87
2022/10/20 10:49:22;;;;;;;4.85;1.60;;;;;;;;;;8330073;28;20604;-87
2022/10/20 10:53:43;;;;;;;2.38;1.70;;;;;;;;;;8320007;28;20578;-87
2022/10/20 10:57:57;;;;;;;13.45;6.03;;;;;;;;;;8328939;28;20111;-87
2022/10/20 11:02:26;;;;;;;75.05;28.90;;;;;;;;;;8335416;28;20064;-84
2022/10/20 11:06:37;;;;;;;36.65;15.80;;;;;;;;;;8335706;28;20513;-85
2022/10/20 11:10:50;;;;;;;111.35;56.72;;;;;;;;;;8335352;28;20056;-85
2022/10/20 11:15:03;;;;;;;19.50;14.10;;;;;;;;;;8335237;28;20045;-84
2022/10/20 11:19:38;;;;;;;6.13;3.15;;;;;;;;;;8335600;28;20045;-85
2022/10/20 11:23:57;;;;;;;9.32;3.70;;;;;;;;;;8335235;28;20351;-85
2022/10/20 11:28:00;;;;;;;24.67;12.32;;;;;;;;;;8335054;28;20045;-85
2022/10/20 11:32:12;;;;;;;26.77;12.50;;;;;;;;;;8337507;28;20052;-86
2022/10/20 11:36:21;;;;;;;5.35;3.03;;;;;;;;;;8328128;28;20048;-85
2022/10/20 11:40:28;;;;;;;39.60;17.35;;;;;;;;;;8331621;28;20056;-86
2022/10/20 11:44:39;;;;;;;26.90;12.00;;;;;;;;;;8336801;28;20064;-86
2022/10/20 11:48:49;;;;;;;7.38;4.18;;;;;;;;;;8342465;28;20045;-86
2022/10/20 11:53:10;;;;;;;3.22;1.90;;;;;;;;;;8332039;28;20412;-86
2022/10/20 11:57:20;;;;;;;5.85;3.33;;;;;;;;;;8331414;28;20397;-86
2022/10/20 12:01:35;;;;;;;5.40;2.58;;;;;;;;;;8333434;28;20049;-85
2022/10/20 12:05:54;;;;;;;4.20;2.00;;;;;;;;;;8334898;28;20065;-87
2022/10/20 12:10:13;;;;;;;2.70;1.50;;;;;;;;;;8336886;28;20106;-85
2022/10/20 12:14:23;;;;;;;8.25;2.60;;;;;;;;;;8327447;28;20479;-86
2022/10/20 12:18:30;;;;;;;6.40;3.33;;;;;;;;;;8346764;28;20045;-86
2022/10/20 12:22:43;;;;;;;2.70;1.55;;;;;;;;;;8346787;28;20152;-86
2022/10/20 12:27:19;;;;;;;9.02;3.90;;;;;;;;;;8346731;28;20048;-86
2022/10/20 12:31:24;;;;;;;3.95;1.90;;;;;;;;;;8321223;28;20151;-86
2022/10/20 12:36:02;;;;;;;8.85;2.92;;;;;;;;;;8340660;28;20267;-86
2022/10/20 12:40:23;;;;;;;51.45;20.63;;;;;;;;;;8305293;28;20088;-85
2022/10/20 12:44:29;;;;;;;16.92;6.30;;;;;;;;;;8327817;28;20049;-85
2022/10/20 12:48:35;;;;;;;4.18;1.60;;;;;;;;;;8343949;28;20049;-85
2022/10/20 12:52:40;;;;;;;9.25;4.55;;;;;;;;;;8351179;28;20432;-85
2022/10/20 12:56:43;;;;;;;3.33;1.90;;;;;;;;;;8350486;28;20049;-84
2022/10/20 13:01:05;;;;;;;5.43;2.10;;;;;;;;;;8364266;28;20505;-87
2022/10/20 13:05:32;;;;;;;;;;;;;;;;;;8350839;28;20049;-86
2022/10/20 13:09:55;;;;;;;4.22;1.60;;;;;;;;;;8332102;28;20393;-86
2022/10/20 13:14:13;;;;;;;5.70;1.90;;;;;;;;;;8309185;28;20061;-87
2022/10/20 13:18:19;;;;;;;2.25;1.60;;;;;;;;;;8330687;28;20468;-85
2022/10/20 13:22:41;;;;;;;1.95;1.55;;;;;;;;;;8324347;28;20073;-85
2022/10/20 13:26:53;;;;;;;9.93;5.22;;;;;;;;;;8315362;28;20124;-85
2022/10/20 13:31:09;;;;;;;6.70;4.05;;;;;;;;;;8321307;28;20485;-85
2022/10/20 13:35:20;;;;;;;4.47;1.90;;;;;;;;;;8320883;28;20547;-86
2022/10/20 13:39:32;;;;;;;5.15;2.25;;;;;;;;;;8317475;28;20045;-85
2022/10/20 13:43:41;;;;;;;;;;;;;;;;;;8310529;28;20539;-86
2022/10/20 13:47:50;;;;;;;2.72;1.80;;;;;;;;;;8319690;28;20015;-85
2022/10/20 13:51:56;;;;;;;5.05;2.10;;;;;;;;;;8328601;28;20042;-86
2022/10/20 13:56:03;;;;;;;3.08;1.35;;;;;;;;;;8329643;28;20045;-85
2022/10/20 14:00:18;;;;;;;7.65;3.17;;;;;;;;;;8324021;28;20053;-85
2022/10/20 14:04:27;;;;;;;5.43;1.75;;;;;;;;;;8324387;28;20485;-86
2022/10/20 14:08:30;;;;;;;2.88;2.00;;;;;;;;;;8325198;28;20045;-85
2022/10/20 14:12:33;;;;;;;3.08;2.40;;;;;;;;;;8328699;28;20053;-87
2022/10/20 14:16:38;;;;;;;10.50;3.05;;;;;;;;;;8319257;28;20045;-86
2022/10/20 14:20:40;;;;;;;9.70;4.30;;;;;;;;;;8328854;28;20059;-86
2022/10/20 14:24:45;;;;;;;4.90;2.53;;;;;;;;;;8340604;28;20076;-86
2022/10/20 14:28:49;;;;;;;4.13;2.13;;;;;;;;;;8349302;28;20049;-85
2022/10/20 14:32:55;;;;;;;4.70;2.90;;;;;;;;;;8308375;28;20049;-86
2022/10/20 14:36:58;;;;;;;3.95;2.50;;;;;;;;;;8338196;28;20055;-86
2022/10/20 14:41:02;;;;;;;8.52;4.00;;;;;;;;;;8344627;28;20045;-86
2022/10/20 14:45:05;;;;;;;3.53;2.28;;;;;;;;;;8330169;28;20045;-86
2022/10/20 14:49:16;;;;;;;5.47;3.17;;;;;;;;;;8319853;28;20057;-86
2022/10/20 14:53:33;;;;;;;13.40;7.53;;;;;;;;;;8318224;28;20046;-86
2022/10/20 14:57:44;;;;;;;7.75;4.00;;;;;;;;;;8326701;28;20061;-86
2022/10/20 15:02:00;;;;;;;4.53;2.60;;;;;;;;;;8328500;28;20076;-86
2022/10/20 15:06:05;;;;;;;5.88;2.50;;;;;;;;;;8320873;28;20498;-86
2022/10/20 15:10:12;;;;;;;5.78;2.50;;;;;;;;;;8314675;28;20064;-86
2022/10/20 15:14:16;;;;;;;3.95;2.28;;;;;;;;;;8300165;28;20054;-85
2022/10/20 15:18:22;;;;;;;7.13;4.22;;;;;;;;;;8335179;28;20084;-86
2022/10/20 15:22:26;;;;;;;3.45;1.90;;;;;;;;;;8336242;28;20041;-86
2022/10/20 15:26:28;;;;;;;4.78;2.00;;;;;;;;;;8318065;28;20124;-85
2022/10/20 15:30:31;;;;;;;4.78;2.60;;;;;;;;;;8311671;28;20397;-86
2022/10/20 15:34:34;;;;;;;4.50;2.55;;;;;;;;;;8329789;28;20049;-85
2022/10/20 15:38:38;;;;;;;4.78;2.30;;;;;;;;;;8333173;28;20507;-86
2022/10/20 15:42:41;;;;;;;6.45;2.30;;;;;;;;;;8327974;28;20049;-86
2022/10/20 15:46:44;;;;;;;3.88;2.15;;;;;;;;;;8325115;28;20477;-86
2022/10/20 15:50:47;;;;;;;7.25;3.38;;;;;;;;;;8327844;28;20050;-86
2022/10/20 15:54:54;;;;;;;4.13;2.72;;;;;;;;;;8333630;28;20041;-86
2022/10/20 15:58:56;;;;;;;7.50;4.20;;;;;;;;;;8306575;28;20049;-85
2022/10/20 16:02:59;;;;;;;3.25;2.13;;;;;;;;;;8325630;28;20529;-86
2022/10/20 16:07:01;;;;;;;8.80;5.55;;;;;;;;;;8333210;28;20045;-86
2022/10/20 16:11:07;;;;;;;6.50;3.22;;;;;;;;;;8333101;28;20099;-86
2022/10/20 16:15:11;;;;;;;10.23;4.60;;;;;;;;;;8328874;28;20069;-86
2022/10/20 16:19:13;;;;;;;6.78;3.25;;;;;;;;;;8310005;28;20390;-87
2022/10/20 16:23:16;;;;;;;21.25;9.15;;;;;;;;;;8329661;28;20072;-87
2022/10/20 16:27:20;;;;;;;22.92;10.63;;;;;;;;;;8326290;28;20043;-87
2022/10/20 16:31:22;;;;;;;10.73;5.65;;;;;;;;;;8320409;28;20049;-85
2022/10/20 16:35:25;;;;;;;13.80;6.03;;;;;;;;;;8323916;28;20050;-87
2022/10/20 16:39:27;;;;;;;9.65;5.38;;;;;;;;;;8309727;28;20052;-87
2022/10/20 16:43:36;;;;;;;14.65;6.60;;;;;;;;;;8326596;28;20049;-86
2022/10/20 16:47:38;;;;;;;18.25;8.75;;;;;;;;;;8324187;28;20042;-86
2022/10/20 16:51:41;;;;;;;31.38;14.18;;;;;;;;;;8319957;28;20076;-86
2022/10/20 16:55:52;;;;;;;34.13;17.98;;;;;;;;;;8324623;28;20042;-86
2022/10/20 16:59:58;;;;;;;20.00;6.93;;;;;;;;;;8328259;28;20042;-87
2022/10/20 17:04:01;;;;;;;21.73;9.20;;;;;;;;;;8342516;28;20523;-85
2022/10/20 17:08:05;;;;;;;14.43;6.88;;;;;;;;;;8334320;28;20144;-85
2022/10/20 17:12:07;;;;;;;12.93;6.63;;;;;;;;;;8312648;28;20050;-86
2022/10/20 17:16:15;;;;;;;9.10;4.82;;;;;;;;;;8318150;28;20409;-86
2022/10/20 17:20:17;;;;;;;9.68;5.75;;;;;;;;;;8318313;28;20069;-85
2022/10/20 17:24:26;;;;;;;15.52;8.25;;;;;;;;;;8339274;28;20137;-85
2022/10/20 17:28:28;;;;;;;15.73;8.80;;;;;;;;;;8333759;28;20484;-86
2022/10/20 17:32:34;;;;;;;75.18;30.80;;;;;;;;;;8328909;28;20091;-85
2022/10/20 17:36:40;;;;;;;54.20;21.45;;;;;;;;;;8312757;28;20243;-85
2022/10/20 17:40:45;;;;;;;25.25;10.63;;;;;;;;;;8322192;28;20061;-86
2022/10/20 17:44:57;;;;;;;20.33;10.10;;;;;;;;;;8339094;28;20056;-86
2022/10/20 17:49:10;;;;;;;16.38;7.72;;;;;;;;;;8343014;28;20045;-86
2022/10/20 17:53:15;;;;;;;20.63;8.80;;;;;;;;;;8299153;28;20053;-86
2022/10/20 17:57:19;;;;;;;16.60;8.07;;;;;;;;;;8329976;28;20042;-87
2022/10/20 18:01:25;;;;;;;21.88;11.00;;;;;;;;;;8340337;28;20057;-86
2022/10/20 18:05:31;;;;;;;36.63;15.32;;;;;;;;;;8341999;28;20071;-85
2022/10/20 18:09:33;;;;;;;47.03;14.85;;;;;;;;;;8338077;28;20060;-85
2022/10/20 18:13:37;;;;;;;19.13;9.10;;;;;;;;;;8359866;28;20049;-86
2022/10/20 18:17:40;;;;;;;18.33;8.63;;;;;;;;;;8353481;28;20064;-85
2022/10/20 18:21:45;;;;;;;20.27;8.63;;;;;;;;;;8360726;28;20538;-86
2022/10/20 18:25:47;;;;;;;22.65;10.23;;;;;;;;;;8361347;28;20048;-86
2022/10/20 18:29:50;;;;;;;27.17;12.43;;;;;;;;;;8355680;28;20049;-85
2022/10/20 18:33:57;;;;;;;21.10;9.98;;;;;;;;;;8331692;28;20069;-85
2022/10/20 18:38:03;;;;;;;28.08;14.73;;;;;;;;;;8339735;28;20124;-86
2022/10/20 18:42:05;;;;;;;31.15;12.18;;;;;;;;;;8343528;28;20076;-85
2022/10/20 18:46:11;;;;;;;23.05;10.77;;;;;;;;;;8329185;28;20126;-85
2022/10/20 18:50:15;;;;;;;26.27;12.75;;;;;;;;;;8329311;28;20052;-85
2022/10/20 18:54:22;;;;;;;33.25;20.15;;;;;;;;;;8329231;28;20056;-85
2022/10/20 18:58:25;;;;;;;23.27;13.57;;;;;;;;;;8329092;28;20042;-86
2022/10/20 19:02:30;;;;;;;28.73;13.32;;;;;;;;;;8329359;28;20049;-87
2022/10/20 19:06:33;;;;;;;33.53;15.05;;;;;;;;;;8329090;28;20041;-85
2022/10/20 19:10:42;;;;;;;25.35;12.55;;;;;;;;;;8329011;28;20065;-85
2022/10/20 19:14:45;;;;;;;31.48;12.80;;;;;;;;;;8328876;28;20053;-86
2022/10/20 19:18:50;;;;;;;22.25;10.93;;;;;;;;;;8329049;28;20069;-85
2022/10/20 19:22:53;;;;;;;24.73;11.73;;;;;;;;;;8334942;28;20045;-86
2022/10/20 19:26:58;;;;;;;20.70;9.85;;;;;;;;;;8335249;28;20056;-85
2022/10/20 19:31:01;;;;;;;23.23;10.25;;;;;;;;;;8335336;28;20072;-85
2022/10/20 19:35:05;;;;;;;28.90;11.85;;;;;;;;;;8348953;28;20053;-85
2022/10/20 19:39:10;;;;;;;22.17;11.88;;;;;;;;;;8334764;28;20042;-85
2022/10/20 19:43:15;;;;;;;21.73;9.35;;;;;;;;;;8334717;28;20132;-85
2022/10/20 19:47:18;;;;;;;35.15;16.13;;;;;;;;;;8334758;28;20087;-84
2022/10/20 19:51:21;;;;;;;24.35;10.68;;;;;;;;;;8334586;28;20041;-85
2022/10/20 19:55:24;;;;;;;90.63;31.20;;;;;;;;;;8334246;28;20049;-86
2022/10/20 19:59:28;;;;;;;49.10;22.88;;;;;;;;;;8334147;28;20071;-85
2022/10/20 20:03:31;;;;;;;29.83;15.20;;;;;;;;;;8333829;28;20214;-86
2022/10/20 20:07:34;;;;;;;35.92;17.48;;;;;;;;;;8333941;28;20444;-85
2022/10/20 20:11:38;;;;;;;37.65;17.13;;;;;;;;;;8333526;28;20121;-85
2022/10/20 20:15:43;;;;;;;26.60;11.20;;;;;;;;;;8332391;28;20456;-85
2022/10/20 20:19:45;;;;;;;24.17;10.45;;;;;;;;;;8323713;28;20497;-85
2022/10/20 20:23:48;;;;;;;26.05;11.25;;;;;;;;;;8333737;28;20379;-85
2022/10/20 20:27:53;;;;;;;29.33;11.73;;;;;;;;;;8333238;28;20076;-85
2022/10/20 20:31:58;;;;;;;27.00;10.75;;;;;;;;;;8331917;28;20486;-85
2022/10/20 20:36:02;;;;;;;43.40;18.25;;;;;;;;;;8346844;28;20053;-85
2022/10/20 20:40:06;;;;;;;79.90;30.27;;;;;;;;;;8332902;28;20080;-85
2022/10/20 20:44:09;;;;;;;76.72;26.08;;;;;;;;;;8332332;28;20068;-86
2022/10/20 20:48:13;;;;;;;36.22;12.15;;;;;;;;;;8332750;28;20398;-85
2022/10/20 20:52:15;;;;;;;70.57;32.75;;;;;;;;;;8332583;28;20057;-85
2022/10/20 20:56:18;;;;;;;31.15;13.40;;;;;;;;;;8332346;28;20041;-85
2022/10/20 21:00:20;;;;;;;56.25;19.30;;;;;;;;;;8327683;28;20049;-85
2022/10/20 21:04:25;;;;;;;30.73;11.55;;;;;;;;;;8319200;28;20045;-85
2022/10/20 21:08:27;;;;;;;38.38;15.75;;;;;;;;;;8332062;28;20503;-85
2022/10/20 21:12:30;;;;;;;67.13;25.70;;;;;;;;;;8331976;28;20072;-84
2022/10/20 21:16:34;;;;;;;86.13;35.55;;;;;;;;;;8331802;28;20049;-86
2022/10/20 21:20:38;;;;;;;58.90;26.05;;;;;;;;;;8331567;28;20107;-85
2022/10/20 21:24:40;;;;;;;44.03;19.27;;;;;;;;;;8331700;28;20707;-86
2022/10/20 21:28:43;;;;;;;49.60;22.83;;;;;;;;;;8331407;28;20045;-86
2022/10/20 21:32:46;;;;;;;37.20;18.05;;;;;;;;;;8334494;28;20033;-86
2022/10/20 21:36:50;;;;;;;43.67;16.13;;;;;;;;;;8355896;28;20482;-85
2022/10/20 21:40:52;;;;;;;60.85;22.90;;;;;;;;;;8330971;28;20069;-85
2022/10/20 21:44:54;;;;;;;45.33;19.00;;;;;;;;;;8330715;28;20049;-85
2022/10/20 21:48:59;;;;;;;39.92;15.60;;;;;;;;;;8330858;28;20056;-86
2022/10/20 21:53:03;;;;;;;38.25;14.50;;;;;;;;;;8331043;28;20481;-84
2022/10/20 21:57:05;;;;;;;35.60;15.85;;;;;;;;;;8330846;28;20037;-85
2022/10/20 22:01:10;;;;;;;30.52;11.88;;;;;;;;;;8330366;28;20044;-85
2022/10/20 22:05:12;;;;;;;33.35;14.88;;;;;;;;;;8330235;28;20045;-85
2022/10/20 22:09:16;;;;;;;32.60;15.35;;;;;;;;;;8330251;28;20095;-86
2022/10/20 22:13:19;;;;;;;28.67;12.77;;;;;;;;;;8325326;28;20062;-85
2022/10/20 22:17:22;;;;;;;35.60;13.50;;;;;;;;;;8329943;28;20046;-85
2022/10/20 22:21:25;;;;;;;26.73;10.60;;;;;;;;;;8329926;28;20128;-86
2022/10/20 22:25:29;;;;;;;24.83;10.18;;;;;;;;;;8329828;28;20048;-85
2022/10/20 22:29:31;;;;;;;38.17;12.38;;;;;;;;;;8329745;28;20049;-85
2022/10/20 22:33:34;;;;;;;30.73;13.00;;;;;;;;;;8339386;28;20041;-86
2022/10/20 22:37:37;;;;;;;31.42;11.55;;;;;;;;;;8333339;28;20080;-85
2022/10/20 22:41:41;;;;;;;26.13;10.63;;;;;;;;;;8329413;28;20045;-86
2022/10/20 22:45:43;;;;;;;34.55;12.48;;;;;;;;;;8329331;28;20069;-85
2022/10/20 22:49:45;;;;;;;33.60;13.32;;;;;;;;;;8329246;28;20041;-85
2022/10/20 22:53:47;;;;;;;30.70;13.02;;;;;;;;;;8329306;28;20049;-85
2022/10/20 22:57:52;;;;;;;33.13;14.45;;;;;;;;;;8335493;28;20055;-84
2022/10/20 23:01:54;;;;;;;22.05;9.57;;;;;;;;;;8336070;28;20116;-85
2022/10/20 23:05:57;;;;;;;24.02;9.40;;;;;;;;;;8326050;28;20046;-84
2022/10/20 23:09:59;;;;;;;20.70;8.52;;;;;;;;;;8332288;28;20046;-85
2022/10/20 23:14:03;;;;;;;20.52;9.40;;;;;;;;;;8335515;28;20053;-85
2022/10/20 23:18:05;;;;;;;19.63;8.75;;;;;;;;;;8335497;28;20120;-85
2022/10/20 23:22:08;;;;;;;21.60;8.95;;;;;;;;;;8335330;28;20041;-85
2022/10/20 23:26:11;;;;;;;27.13;10.55;;;;;;;;;;8335602;28;20128;-86
2022/10/20 23:30:15;;;;;;;19.55;8.38;;;;;;;;;;8327309;28;20045;-85
2022/10/20 23:34:17;;;;;;;17.70;8.45;;;;;;;;;;8349271;28;20049;-85
2022/10/20 23:38:20;;;;;;;20.55;9.38;;;;;;;;;;8334923;28;20048;-85
2022/10/20 23:42:22;;;;;;;19.23;7.68;;;;;;;;;;8334789;28;20548;-85
2022/10/20 23:46:30;;;;;;;20.17;8.27;;;;;;;;;;8334688;28;20045;-85
2022/10/20 23:50:32;;;;;;;17.05;8.35;;;;;;;;;;8334455;28;20049;-85
2022/10/20 23:54:35;;;;;;;24.13;9.43;;;;;;;;;;8334167;28;20046;-85
2022/10/20 23:58:37;;;;;;;21.95;9.65;;;;;;;;;;8334235;28;20045;-86
